sensor_id;sensor_type;location;lat;lon;timestamp;P1;durP1;ratioP1;P2;durP2;ratioP2
18526;SDS011;9393;42.158;24.748;2022-07-21T00:00:12;7.18;;;3.63;;
18526;SDS011;9393;42.158;24.748;2022-07-21T00:03:16;7.28;;;3.55;;
18526;SDS011;9393;42.158;24.748;2022-07-21T00:06:20;13.95;;;7.28;;
18526;SDS011;9393;42.158;24.748;2022-07-21T00:09:23;34.55;;;17.40;;
18526;SDS011;9393;42.158;24.748;2022-07-21T00:12:27;50.70;;;23.48;;
18526;SDS011;9393;42.158;24.748;2022-07-21T00:15:32;46.40;;;22.45;;
18526;SDS011;9393;42.158;24.748;2022-07-21T00:18:35;39.45;;;17.65;;
18526;SDS011;9393;42.158;24.748;2022-07-21T00:21:39;31.55;;;16.70;;
18526;SDS011;9393;42.158;24.748;2022-07-21T00:24:42;17.48;;;8.55;;
18526;SDS011;9393;42.158;24.748;2022-07-21T00:27:45;13.13;;;7.43;;
18526;SDS011;9393;42.158;24.748;2022-07-21T00:30:50;11.38;;;5.78;;
18526;SDS011;9393;42.158;24.748;2022-07-21T00:33:54;7.43;;;3.90;;
18526;SDS011;9393;42.158;24.748;2022-07-21T00:36:57;6.55;;;3.92;;
18526;SDS011;9393;42.158;24.748;2022-07-21T00:40:00;4.80;;;3.38;;
18526;SDS011;9393;42.158;24.748;2022-07-21T00:43:04;4.88;;;3.28;;
18526;SDS011;9393;42.158;24.748;2022-07-21T00:46:09;5.88;;;3.17;;
18526;SDS011;9393;42.158;24.748;2022-07-21T00:49:13;6.97;;;2.85;;
18526;SDS011;9393;42.158;24.748;2022-07-21T00:52:16;4.60;;;3.20;;
18526;SDS011;9393;42.158;24.748;2022-07-21T00:55:21;3.38;;;2.58;;
18526;SDS011;9393;42.158;24.748;2022-07-21T00:58:25;5.72;;;3.08;;
18526;SDS011;9393;42.158;24.748;2022-07-21T01:01:30;4.05;;;2.90;;
18526;SDS011;9393;42.158;24.748;2022-07-21T01:04:34;9.15;;;2.70;;
18526;SDS011;9393;42.158;24.748;2022-07-21T01:07:38;5.10;;;3.05;;
18526;SDS011;9393;42.158;24.748;2022-07-21T01:10:42;2.90;;;2.60;;
18526;SDS011;9393;42.158;24.748;2022-07-21T01:13:45;6.80;;;2.70;;
18526;SDS011;9393;42.158;24.748;2022-07-21T01:16:51;9.27;;;3.20;;
18526;SDS011;9393;42.158;24.748;2022-07-21T01:19:54;4.85;;;2.70;;
18526;SDS011;9393;42.158;24.748;2022-07-21T01:22:59;5.78;;;3.05;;
18526;SDS011;9393;42.158;24.748;2022-07-21T01:26:03;7.22;;;2.90;;
18526;SDS011;9393;42.158;24.748;2022-07-21T01:29:07;6.90;;;2.83;;
18526;SDS011;9393;42.158;24.748;2022-07-21T01:32:11;3.63;;;2.50;;
18526;SDS011;9393;42.158;24.748;2022-07-21T01:35:15;2.83;;;2.30;;
18526;SDS011;9393;42.158;24.748;2022-07-21T01:38:20;3.92;;;2.80;;
18526;SDS011;9393;42.158;24.748;2022-07-21T01:41:37;4.15;;;2.70;;
18526;SDS011;9393;42.158;24.748;2022-07-21T01:44:41;3.90;;;2.67;;
18526;SDS011;9393;42.158;24.748;2022-07-21T01:47:44;2.95;;;2.50;;
18526;SDS011;9393;42.158;24.748;2022-07-21T01:50:48;5.20;;;3.03;;
18526;SDS011;9393;42.158;24.748;2022-07-21T01:53:52;3.40;;;2.50;;
18526;SDS011;9393;42.158;24.748;2022-07-21T01:56:56;3.03;;;2.47;;
18526;SDS011;9393;42.158;24.748;2022-07-21T01:59:59;5.78;;;3.03;;
18526;SDS011;9393;42.158;24.748;2022-07-21T02:03:07;6.10;;;2.83;;
18526;SDS011;9393;42.158;24.748;2022-07-21T02:06:10;5.75;;;3.10;;
18526;SDS011;9393;42.158;24.748;2022-07-21T02:09:15;4.75;;;2.75;;
18526;SDS011;9393;42.158;24.748;2022-07-21T02:12:19;4.65;;;2.60;;
18526;SDS011;9393;42.158;24.748;2022-07-21T02:15:23;6.40;;;2.80;;
18526;SDS011;9393;42.158;24.748;2022-07-21T02:18:26;3.25;;;2.10;;
18526;SDS011;9393;42.158;24.748;2022-07-21T02:21:30;4.55;;;3.00;;
18526;SDS011;9393;42.158;24.748;2022-07-21T02:24:34;5.75;;;2.50;;
18526;SDS011;9393;42.158;24.748;2022-07-21T02:27:38;4.72;;;2.50;;
18526;SDS011;9393;42.158;24.748;2022-07-21T02:30:41;5.43;;;2.70;;
18526;SDS011;9393;42.158;24.748;2022-07-21T02:33:45;2.78;;;2.45;;
18526;SDS011;9393;42.158;24.748;2022-07-21T02:36:48;3.95;;;2.58;;
18526;SDS011;9393;42.158;24.748;2022-07-21T02:39:53;6.60;;;2.60;;
18526;SDS011;9393;42.158;24.748;2022-07-21T02:42:57;4.65;;;2.45;;
18526;SDS011;9393;42.158;24.748;2022-07-21T02:46:00;4.75;;;2.75;;
18526;SDS011;9393;42.158;24.748;2022-07-21T02:49:04;3.75;;;2.78;;
18526;SDS011;9393;42.158;24.748;2022-07-21T02:52:07;7.30;;;3.35;;
18526;SDS011;9393;42.158;24.748;2022-07-21T02:55:12;6.40;;;2.65;;
18526;SDS011;9393;42.158;24.748;2022-07-21T02:58:16;3.40;;;2.53;;
18526;SDS011;9393;42.158;24.748;2022-07-21T03:01:21;10.10;;;2.83;;
18526;SDS011;9393;42.158;24.748;2022-07-21T03:04:24;4.13;;;2.92;;
18526;SDS011;9393;42.158;24.748;2022-07-21T03:07:27;9.48;;;3.45;;
18526;SDS011;9393;42.158;24.748;2022-07-21T03:10:32;7.95;;;3.92;;
18526;SDS011;9393;42.158;24.748;2022-07-21T03:13:36;3.45;;;2.92;;
18526;SDS011;9393;42.158;24.748;2022-07-21T03:16:39;4.47;;;3.13;;
18526;SDS011;9393;42.158;24.748;2022-07-21T03:19:43;6.63;;;4.15;;
18526;SDS011;9393;42.158;24.748;2022-07-21T03:22:46;14.35;;;8.52;;
18526;SDS011;9393;42.158;24.748;2022-07-21T03:25:51;17.48;;;8.77;;
18526;SDS011;9393;42.158;24.748;2022-07-21T03:28:54;16.95;;;9.65;;
18526;SDS011;9393;42.158;24.748;2022-07-21T03:31:58;12.43;;;6.30;;
18526;SDS011;9393;42.158;24.748;2022-07-21T03:35:01;12.75;;;5.80;;
18526;SDS011;9393;42.158;24.748;2022-07-21T03:38:05;7.40;;;4.93;;
18526;SDS011;9393;42.158;24.748;2022-07-21T03:41:10;9.85;;;5.22;;
18526;SDS011;9393;42.158;24.748;2022-07-21T03:44:14;10.27;;;4.78;;
18526;SDS011;9393;42.158;24.748;2022-07-21T03:47:17;7.82;;;4.05;;
18526;SDS011;9393;42.158;24.748;2022-07-21T03:50:20;12.93;;;6.05;;
18526;SDS011;9393;42.158;24.748;2022-07-21T03:53:24;12.48;;;7.47;;
18526;SDS011;9393;42.158;24.748;2022-07-21T03:56:29;17.77;;;11.27;;
18526;SDS011;9393;42.158;24.748;2022-07-21T03:59:32;23.05;;;12.43;;
18526;SDS011;9393;42.158;24.748;2022-07-21T04:02:35;24.77;;;13.18;;
18526;SDS011;9393;42.158;24.748;2022-07-21T04:05:39;29.55;;;14.23;;
18526;SDS011;9393;42.158;24.748;2022-07-21T04:08:44;30.35;;;15.95;;
18526;SDS011;9393;42.158;24.748;2022-07-21T04:11:48;36.58;;;16.45;;
18526;SDS011;9393;42.158;24.748;2022-07-21T04:14:52;26.08;;;11.35;;
18526;SDS011;9393;42.158;24.748;2022-07-21T04:17:56;19.88;;;10.00;;
18526;SDS011;9393;42.158;24.748;2022-07-21T04:20:59;14.65;;;6.35;;
18526;SDS011;9393;42.158;24.748;2022-07-21T04:24:04;23.13;;;7.22;;
18526;SDS011;9393;42.158;24.748;2022-07-21T04:27:09;15.18;;;6.05;;
18526;SDS011;9393;42.158;24.748;2022-07-21T04:30:14;10.75;;;4.07;;
18526;SDS011;9393;42.158;24.748;2022-07-21T04:33:19;9.60;;;4.07;;
18526;SDS011;9393;42.158;24.748;2022-07-21T04:36:22;6.97;;;3.78;;
18526;SDS011;9393;42.158;24.748;2022-07-21T04:39:25;8.32;;;4.57;;
18526;SDS011;9393;42.158;24.748;2022-07-21T04:42:30;8.68;;;4.05;;
18526;SDS011;9393;42.158;24.748;2022-07-21T04:45:34;8.48;;;4.78;;
18526;SDS011;9393;42.158;24.748;2022-07-21T04:48:37;10.80;;;3.95;;
18526;SDS011;9393;42.158;24.748;2022-07-21T04:51:41;8.38;;;3.90;;
18526;SDS011;9393;42.158;24.748;2022-07-21T04:54:44;7.68;;;3.50;;
18526;SDS011;9393;42.158;24.748;2022-07-21T04:57:49;10.05;;;4.03;;
18526;SDS011;9393;42.158;24.748;2022-07-21T05:00:54;7.10;;;3.13;;
18526;SDS011;9393;42.158;24.748;2022-07-21T05:03:57;8.07;;;3.45;;
18526;SDS011;9393;42.158;24.748;2022-07-21T05:07:01;10.00;;;3.33;;
18526;SDS011;9393;42.158;24.748;2022-07-21T05:10:04;6.07;;;3.20;;
18526;SDS011;9393;42.158;24.748;2022-07-21T05:13:10;14.00;;;3.38;;
18526;SDS011;9393;42.158;24.748;2022-07-21T05:16:13;11.43;;;5.45;;
18526;SDS011;9393;42.158;24.748;2022-07-21T05:19:17;16.48;;;8.23;;
18526;SDS011;9393;42.158;24.748;2022-07-21T05:22:20;25.15;;;10.90;;
18526;SDS011;9393;42.158;24.748;2022-07-21T05:25:24;14.65;;;7.78;;
18526;SDS011;9393;42.158;24.748;2022-07-21T05:28:28;17.77;;;5.63;;
18526;SDS011;9393;42.158;24.748;2022-07-21T05:31:32;14.63;;;5.88;;
18526;SDS011;9393;42.158;24.748;2022-07-21T05:34:36;10.20;;;4.97;;
18526;SDS011;9393;42.158;24.748;2022-07-21T05:37:39;10.15;;;4.85;;
18526;SDS011;9393;42.158;24.748;2022-07-21T05:40:43;17.40;;;7.47;;
18526;SDS011;9393;42.158;24.748;2022-07-21T05:43:48;10.00;;;5.00;;
18526;SDS011;9393;42.158;24.748;2022-07-21T05:46:51;9.68;;;5.57;;
18526;SDS011;9393;42.158;24.748;2022-07-21T05:49:55;12.50;;;5.25;;
18526;SDS011;9393;42.158;24.748;2022-07-21T05:52:58;14.80;;;5.63;;
18526;SDS011;9393;42.158;24.748;2022-07-21T05:56:01;21.00;;;5.93;;
18526;SDS011;9393;42.158;24.748;2022-07-21T05:59:06;11.73;;;5.70;;
18526;SDS011;9393;42.158;24.748;2022-07-21T06:02:10;15.90;;;7.32;;
18526;SDS011;9393;42.158;24.748;2022-07-21T06:05:13;15.93;;;7.13;;
18526;SDS011;9393;42.158;24.748;2022-07-21T06:08:17;14.73;;;6.18;;
18526;SDS011;9393;42.158;24.748;2022-07-21T06:11:20;13.90;;;5.40;;
18526;SDS011;9393;42.158;24.748;2022-07-21T06:14:25;17.60;;;3.65;;
18526;SDS011;9393;42.158;24.748;2022-07-21T06:17:29;10.20;;;4.15;;
18526;SDS011;9393;42.158;24.748;2022-07-21T06:20:34;13.98;;;3.83;;
18526;SDS011;9393;42.158;24.748;2022-07-21T06:23:37;9.90;;;4.55;;
18526;SDS011;9393;42.158;24.748;2022-07-21T06:26:41;8.52;;;3.78;;
18526;SDS011;9393;42.158;24.748;2022-07-21T06:29:45;5.72;;;3.80;;
18526;SDS011;9393;42.158;24.748;2022-07-21T06:32:49;8.90;;;4.00;;
18526;SDS011;9393;42.158;24.748;2022-07-21T06:35:52;6.20;;;3.55;;
18526;SDS011;9393;42.158;24.748;2022-07-21T06:38:55;11.05;;;3.70;;
18526;SDS011;9393;42.158;24.748;2022-07-21T06:41:59;7.22;;;3.15;;
18526;SDS011;9393;42.158;24.748;2022-07-21T06:45:04;6.00;;;3.47;;
18526;SDS011;9393;42.158;24.748;2022-07-21T06:48:08;10.25;;;2.95;;
18526;SDS011;9393;42.158;24.748;2022-07-21T06:51:12;9.07;;;2.90;;
18526;SDS011;9393;42.158;24.748;2022-07-21T06:54:15;5.50;;;3.42;;
18526;SDS011;9393;42.158;24.748;2022-07-21T06:57:19;5.38;;;3.17;;
18526;SDS011;9393;42.158;24.748;2022-07-21T07:00:23;5.22;;;3.17;;
18526;SDS011;9393;42.158;24.748;2022-07-21T07:03:27;9.50;;;3.22;;
18526;SDS011;9393;42.158;24.748;2022-07-21T07:06:31;9.02;;;3.90;;
18526;SDS011;9393;42.158;24.748;2022-07-21T07:09:34;7.05;;;3.72;;
18526;SDS011;9393;42.158;24.748;2022-07-21T07:12:38;8.18;;;3.90;;
18526;SDS011;9393;42.158;24.748;2022-07-21T07:16:03;5.57;;;3.75;;
18526;SDS011;9393;42.158;24.748;2022-07-21T07:19:07;5.10;;;3.78;;
18526;SDS011;9393;42.158;24.748;2022-07-21T07:22:10;6.90;;;3.90;;
18526;SDS011;9393;42.158;24.748;2022-07-21T07:25:14;9.55;;;3.78;;
18526;SDS011;9393;42.158;24.748;2022-07-21T07:28:25;11.15;;;3.35;;
18526;SDS011;9393;42.158;24.748;2022-07-21T07:31:30;7.22;;;3.13;;
18526;SDS011;9393;42.158;24.748;2022-07-21T07:34:34;8.77;;;3.22;;
18526;SDS011;9393;42.158;24.748;2022-07-21T07:37:38;10.65;;;3.33;;
18526;SDS011;9393;42.158;24.748;2022-07-21T07:40:43;9.70;;;3.45;;
18526;SDS011;9393;42.158;24.748;2022-07-21T07:43:46;7.65;;;3.10;;
18526;SDS011;9393;42.158;24.748;2022-07-21T07:46:52;13.70;;;3.45;;
18526;SDS011;9393;42.158;24.748;2022-07-21T07:49:55;5.40;;;3.10;;
18526;SDS011;9393;42.158;24.748;2022-07-21T07:52:59;10.52;;;3.75;;
18526;SDS011;9393;42.158;24.748;2022-07-21T07:56:02;8.35;;;3.58;;
18526;SDS011;9393;42.158;24.748;2022-07-21T07:59:09;8.20;;;3.25;;
18526;SDS011;9393;42.158;24.748;2022-07-21T08:02:14;7.25;;;3.28;;
18526;SDS011;9393;42.158;24.748;2022-07-21T08:05:17;8.70;;;3.40;;
18526;SDS011;9393;42.158;24.748;2022-07-21T08:08:20;8.32;;;3.35;;
18526;SDS011;9393;42.158;24.748;2022-07-21T08:11:24;8.40;;;3.08;;
18526;SDS011;9393;42.158;24.748;2022-07-21T08:14:27;5.95;;;2.72;;
18526;SDS011;9393;42.158;24.748;2022-07-21T08:17:32;6.55;;;3.28;;
18526;SDS011;9393;42.158;24.748;2022-07-21T08:20:37;4.43;;;2.42;;
18526;SDS011;9393;42.158;24.748;2022-07-21T08:23:41;8.23;;;2.95;;
18526;SDS011;9393;42.158;24.748;2022-07-21T08:26:44;6.38;;;3.58;;
18526;SDS011;9393;42.158;24.748;2022-07-21T08:29:48;7.80;;;2.72;;
18526;SDS011;9393;42.158;24.748;2022-07-21T08:32:53;4.10;;;2.80;;
18526;SDS011;9393;42.158;24.748;2022-07-21T08:35:56;8.95;;;2.70;;
18526;SDS011;9393;42.158;24.748;2022-07-21T08:38:59;5.20;;;2.78;;
18526;SDS011;9393;42.158;24.748;2022-07-21T08:42:04;8.40;;;3.08;;
18526;SDS011;9393;42.158;24.748;2022-07-21T08:45:09;5.30;;;3.20;;
18526;SDS011;9393;42.158;24.748;2022-07-21T08:48:14;5.60;;;3.40;;
18526;SDS011;9393;42.158;24.748;2022-07-21T08:51:20;3.15;;;2.72;;
18526;SDS011;9393;42.158;24.748;2022-07-21T08:54:24;5.13;;;3.25;;
18526;SDS011;9393;42.158;24.748;2022-07-21T08:57:27;7.00;;;2.25;;
18526;SDS011;9393;42.158;24.748;2022-07-21T09:00:33;3.67;;;2.60;;
18526;SDS011;9393;42.158;24.748;2022-07-21T09:03:39;6.68;;;2.60;;
18526;SDS011;9393;42.158;24.748;2022-07-21T09:06:49;8.40;;;2.92;;
18526;SDS011;9393;42.158;24.748;2022-07-21T09:09:55;3.42;;;2.55;;
18526;SDS011;9393;42.158;24.748;2022-07-21T09:13:00;3.67;;;2.70;;
18526;SDS011;9393;42.158;24.748;2022-07-21T09:16:09;4.10;;;2.85;;
18526;SDS011;9393;42.158;24.748;2022-07-21T09:19:19;3.38;;;2.40;;
18526;SDS011;9393;42.158;24.748;2022-07-21T09:22:24;3.33;;;2.67;;
18526;SDS011;9393;42.158;24.748;2022-07-21T09:25:32;7.32;;;2.70;;
18526;SDS011;9393;42.158;24.748;2022-07-21T09:28:37;7.45;;;2.88;;
18526;SDS011;9393;42.158;24.748;2022-07-21T09:31:42;3.58;;;2.50;;
18526;SDS011;9393;42.158;24.748;2022-07-21T09:34:50;6.53;;;2.75;;
18526;SDS011;9393;42.158;24.748;2022-07-21T09:37:55;4.15;;;2.50;;
18526;SDS011;9393;42.158;24.748;2022-07-21T09:41:05;3.17;;;2.75;;
18526;SDS011;9393;42.158;24.748;2022-07-21T09:44:11;5.13;;;2.85;;
18526;SDS011;9393;42.158;24.748;2022-07-21T09:47:15;4.13;;;2.75;;
18526;SDS011;9393;42.158;24.748;2022-07-21T09:50:22;3.10;;;2.67;;
18526;SDS011;9393;42.158;24.748;2022-07-21T09:53:36;4.25;;;2.83;;
18526;SDS011;9393;42.158;24.748;2022-07-21T09:56:51;4.63;;;3.47;;
18526;SDS011;9393;42.158;24.748;2022-07-21T09:59:57;4.88;;;2.80;;
18526;SDS011;9393;42.158;24.748;2022-07-21T10:03:18;3.63;;;2.70;;
18526;SDS011;9393;42.158;24.748;2022-07-21T10:06:24;3.40;;;2.55;;
18526;SDS011;9393;42.158;24.748;2022-07-21T10:09:29;6.88;;;2.80;;
18526;SDS011;9393;42.158;24.748;2022-07-21T10:12:34;3.97;;;3.25;;
18526;SDS011;9393;42.158;24.748;2022-07-21T10:15:37;4.10;;;3.10;;
18526;SDS011;9393;42.158;24.748;2022-07-21T10:18:45;5.05;;;2.80;;
18526;SDS011;9393;42.158;24.748;2022-07-21T10:22:00;3.42;;;2.80;;
18526;SDS011;9393;42.158;24.748;2022-07-21T10:25:09;4.70;;;2.97;;
18526;SDS011;9393;42.158;24.748;2022-07-21T10:28:13;2.95;;;2.55;;
18526;SDS011;9393;42.158;24.748;2022-07-21T10:31:21;3.42;;;2.80;;
18526;SDS011;9393;42.158;24.748;2022-07-21T10:34:33;7.20;;;3.33;;
18526;SDS011;9393;42.158;24.748;2022-07-21T10:37:46;3.92;;;2.88;;
18526;SDS011;9393;42.158;24.748;2022-07-21T10:40:50;4.80;;;2.92;;
18526;SDS011;9393;42.158;24.748;2022-07-21T10:44:01;5.13;;;2.83;;
18526;SDS011;9393;42.158;24.748;2022-07-21T10:47:05;5.88;;;2.70;;
18526;SDS011;9393;42.158;24.748;2022-07-21T10:50:10;3.08;;;2.83;;
18526;SDS011;9393;42.158;24.748;2022-07-21T10:53:34;7.07;;;2.78;;
18526;SDS011;9393;42.158;24.748;2022-07-21T10:56:38;6.97;;;2.90;;
18526;SDS011;9393;42.158;24.748;2022-07-21T11:03:24;4.93;;;2.40;;
18526;SDS011;9393;42.158;24.748;2022-07-21T11:06:31;4.22;;;2.67;;
18526;SDS011;9393;42.158;24.748;2022-07-21T11:09:42;3.35;;;2.63;;
18526;SDS011;9393;42.158;24.748;2022-07-21T11:14:01;5.22;;;3.03;;
18526;SDS011;9393;42.158;24.748;2022-07-21T11:17:11;5.47;;;3.13;;
18526;SDS011;9393;42.158;24.748;2022-07-21T11:20:27;3.10;;;2.55;;
18526;SDS011;9393;42.158;24.748;2022-07-21T11:23:34;4.07;;;2.50;;
18526;SDS011;9393;42.158;24.748;2022-07-21T11:26:40;5.75;;;2.75;;
18526;SDS011;9393;42.158;24.748;2022-07-21T11:29:44;2.83;;;2.47;;
18526;SDS011;9393;42.158;24.748;2022-07-21T11:32:55;6.60;;;2.95;;
18526;SDS011;9393;42.158;24.748;2022-07-21T11:36:30;6.28;;;3.42;;
18526;SDS011;9393;42.158;24.748;2022-07-21T11:39:42;5.38;;;2.60;;
18526;SDS011;9393;42.158;24.748;2022-07-21T11:42:48;3.20;;;2.88;;
18526;SDS011;9393;42.158;24.748;2022-07-21T11:45:55;3.30;;;2.67;;
18526;SDS011;9393;42.158;24.748;2022-07-21T11:49:32;5.30;;;2.72;;
18526;SDS011;9393;42.158;24.748;2022-07-21T11:53:58;4.75;;;2.90;;
18526;SDS011;9393;42.158;24.748;2022-07-21T11:57:02;5.15;;;3.15;;
18526;SDS011;9393;42.158;24.748;2022-07-21T12:00:09;7.30;;;2.70;;
18526;SDS011;9393;42.158;24.748;2022-07-21T12:03:14;3.50;;;2.58;;
18526;SDS011;9393;42.158;24.748;2022-07-21T12:06:18;5.60;;;2.35;;
18526;SDS011;9393;42.158;24.748;2022-07-21T12:09:22;3.55;;;2.33;;
18526;SDS011;9393;42.158;24.748;2022-07-21T12:12:27;5.60;;;2.50;;
18526;SDS011;9393;42.158;24.748;2022-07-21T12:15:33;4.18;;;2.65;;
18526;SDS011;9393;42.158;24.748;2022-07-21T12:18:40;5.00;;;2.72;;
18526;SDS011;9393;42.158;24.748;2022-07-21T12:21:48;2.72;;;2.33;;
18526;SDS011;9393;42.158;24.748;2022-07-21T12:24:54;3.35;;;2.50;;
18526;SDS011;9393;42.158;24.748;2022-07-21T12:27:59;4.90;;;2.63;;
18526;SDS011;9393;42.158;24.748;2022-07-21T12:31:09;4.88;;;2.60;;
18526;SDS011;9393;42.158;24.748;2022-07-21T12:34:16;6.03;;;2.53;;
18526;SDS011;9393;42.158;24.748;2022-07-21T12:41:00;5.13;;;3.22;;
18526;SDS011;9393;42.158;24.748;2022-07-21T12:44:23;3.90;;;2.40;;
18526;SDS011;9393;42.158;24.748;2022-07-21T12:47:28;3.85;;;2.25;;
18526;SDS011;9393;42.158;24.748;2022-07-21T12:50:31;2.50;;;2.30;;
18526;SDS011;9393;42.158;24.748;2022-07-21T12:53:35;2.88;;;2.40;;
18526;SDS011;9393;42.158;24.748;2022-07-21T12:56:41;4.43;;;2.60;;
18526;SDS011;9393;42.158;24.748;2022-07-21T12:59:45;8.55;;;2.83;;
18526;SDS011;9393;42.158;24.748;2022-07-21T13:02:50;4.30;;;3.30;;
18526;SDS011;9393;42.158;24.748;2022-07-21T13:05:58;2.90;;;2.55;;
18526;SDS011;9393;42.158;24.748;2022-07-21T13:09:02;4.68;;;2.70;;
18526;SDS011;9393;42.158;24.748;2022-07-21T13:12:06;8.82;;;2.90;;
18526;SDS011;9393;42.158;24.748;2022-07-21T13:15:10;4.47;;;2.30;;
18526;SDS011;9393;42.158;24.748;2022-07-21T13:18:15;3.92;;;2.90;;
18526;SDS011;9393;42.158;24.748;2022-07-21T13:21:19;7.82;;;3.00;;
18526;SDS011;9393;42.158;24.748;2022-07-21T13:24:22;3.25;;;2.53;;
18526;SDS011;9393;42.158;24.748;2022-07-21T13:27:28;3.33;;;2.85;;
18526;SDS011;9393;42.158;24.748;2022-07-21T13:30:32;3.03;;;2.58;;
18526;SDS011;9393;42.158;24.748;2022-07-21T13:33:46;5.18;;;3.47;;
18526;SDS011;9393;42.158;24.748;2022-07-21T13:36:50;3.17;;;2.83;;
18526;SDS011;9393;42.158;24.748;2022-07-21T13:39:54;3.88;;;3.30;;
18526;SDS011;9393;42.158;24.748;2022-07-21T13:43:17;4.03;;;2.70;;
18526;SDS011;9393;42.158;24.748;2022-07-21T13:46:37;5.57;;;2.97;;
18526;SDS011;9393;42.158;24.748;2022-07-21T13:49:41;5.05;;;3.20;;
18526;SDS011;9393;42.158;24.748;2022-07-21T13:52:48;3.97;;;2.88;;
18526;SDS011;9393;42.158;24.748;2022-07-21T13:55:51;5.68;;;3.10;;
18526;SDS011;9393;42.158;24.748;2022-07-21T13:58:55;4.50;;;2.60;;
18526;SDS011;9393;42.158;24.748;2022-07-21T14:01:58;3.13;;;2.60;;
18526;SDS011;9393;42.158;24.748;2022-07-21T14:05:04;4.68;;;2.67;;
18526;SDS011;9393;42.158;24.748;2022-07-21T14:08:09;3.67;;;2.67;;
18526;SDS011;9393;42.158;24.748;2022-07-21T14:11:12;7.13;;;3.22;;
18526;SDS011;9393;42.158;24.748;2022-07-21T14:14:16;4.18;;;3.22;;
18526;SDS011;9393;42.158;24.748;2022-07-21T14:17:29;4.38;;;3.78;;
18526;SDS011;9393;42.158;24.748;2022-07-21T14:20:34;3.78;;;3.30;;
18526;SDS011;9393;42.158;24.748;2022-07-21T14:23:37;5.28;;;3.42;;
18526;SDS011;9393;42.158;24.748;2022-07-21T14:26:41;5.18;;;3.03;;
18526;SDS011;9393;42.158;24.748;2022-07-21T14:29:44;6.32;;;3.35;;
18526;SDS011;9393;42.158;24.748;2022-07-21T14:32:47;4.07;;;3.22;;
18526;SDS011;9393;42.158;24.748;2022-07-21T14:35:52;5.95;;;3.50;;
18526;SDS011;9393;42.158;24.748;2022-07-21T14:38:56;7.82;;;3.20;;
18526;SDS011;9393;42.158;24.748;2022-07-21T14:41:59;5.65;;;3.00;;
18526;SDS011;9393;42.158;24.748;2022-07-21T14:45:06;5.10;;;3.30;;
18526;SDS011;9393;42.158;24.748;2022-07-21T14:48:15;4.50;;;3.00;;
18526;SDS011;9393;42.158;24.748;2022-07-21T14:51:26;8.05;;;3.25;;
18526;SDS011;9393;42.158;24.748;2022-07-21T14:54:29;7.93;;;3.55;;
18526;SDS011;9393;42.158;24.748;2022-07-21T14:57:33;4.30;;;3.80;;
18526;SDS011;9393;42.158;24.748;2022-07-21T15:00:37;4.75;;;3.83;;
18526;SDS011;9393;42.158;24.748;2022-07-21T15:03:40;8.85;;;5.32;;
18526;SDS011;9393;42.158;24.748;2022-07-21T15:06:46;6.88;;;3.58;;
18526;SDS011;9393;42.158;24.748;2022-07-21T15:09:49;6.13;;;3.45;;
18526;SDS011;9393;42.158;24.748;2022-07-21T15:12:53;6.47;;;3.10;;
18526;SDS011;9393;42.158;24.748;2022-07-21T15:15:56;4.75;;;2.75;;
18526;SDS011;9393;42.158;24.748;2022-07-21T15:19:00;5.68;;;3.05;;
18526;SDS011;9393;42.158;24.748;2022-07-21T15:22:05;5.03;;;4.22;;
18526;SDS011;9393;42.158;24.748;2022-07-21T15:25:09;4.28;;;3.15;;
18526;SDS011;9393;42.158;24.748;2022-07-21T15:28:13;5.38;;;3.08;;
18526;SDS011;9393;42.158;24.748;2022-07-21T15:31:16;5.95;;;3.10;;
18526;SDS011;9393;42.158;24.748;2022-07-21T15:34:20;3.95;;;2.95;;
18526;SDS011;9393;42.158;24.748;2022-07-21T15:37:25;5.97;;;2.80;;
18526;SDS011;9393;42.158;24.748;2022-07-21T15:40:29;8.85;;;3.45;;
18526;SDS011;9393;42.158;24.748;2022-07-21T15:43:32;3.70;;;3.10;;
18526;SDS011;9393;42.158;24.748;2022-07-21T15:46:36;5.47;;;3.40;;
18526;SDS011;9393;42.158;24.748;2022-07-21T15:49:40;13.93;;;3.53;;
18526;SDS011;9393;42.158;24.748;2022-07-21T15:52:45;4.53;;;3.50;;
18526;SDS011;9393;42.158;24.748;2022-07-21T15:55:49;6.20;;;2.83;;
18526;SDS011;9393;42.158;24.748;2022-07-21T15:58:52;6.75;;;3.50;;
18526;SDS011;9393;42.158;24.748;2022-07-21T16:02:14;3.28;;;2.97;;
18526;SDS011;9393;42.158;24.748;2022-07-21T16:05:20;3.45;;;2.50;;
18526;SDS011;9393;42.158;24.748;2022-07-21T16:08:26;4.43;;;2.88;;
18526;SDS011;9393;42.158;24.748;2022-07-21T16:11:30;6.25;;;3.58;;
18526;SDS011;9393;42.158;24.748;2022-07-21T16:14:33;7.47;;;3.33;;
18526;SDS011;9393;42.158;24.748;2022-07-21T16:17:37;6.60;;;2.97;;
18526;SDS011;9393;42.158;24.748;2022-07-21T16:20:40;5.15;;;3.10;;
18526;SDS011;9393;42.158;24.748;2022-07-21T16:23:45;4.45;;;2.70;;
18526;SDS011;9393;42.158;24.748;2022-07-21T16:26:48;5.55;;;3.13;;
18526;SDS011;9393;42.158;24.748;2022-07-21T16:29:52;5.60;;;3.38;;
18526;SDS011;9393;42.158;24.748;2022-07-21T16:32:55;8.18;;;3.20;;
18526;SDS011;9393;42.158;24.748;2022-07-21T16:35:59;6.32;;;3.22;;
18526;SDS011;9393;42.158;24.748;2022-07-21T16:39:03;5.50;;;3.17;;
18526;SDS011;9393;42.158;24.748;2022-07-21T16:42:07;7.25;;;3.65;;
18526;SDS011;9393;42.158;24.748;2022-07-21T16:45:14;4.57;;;3.40;;
18526;SDS011;9393;42.158;24.748;2022-07-21T16:48:17;4.68;;;3.50;;
18526;SDS011;9393;42.158;24.748;2022-07-21T16:51:21;7.13;;;3.28;;
18526;SDS011;9393;42.158;24.748;2022-07-21T16:54:25;6.72;;;3.33;;
18526;SDS011;9393;42.158;24.748;2022-07-21T16:57:29;7.13;;;3.40;;
18526;SDS011;9393;42.158;24.748;2022-07-21T17:00:32;5.65;;;3.63;;
18526;SDS011;9393;42.158;24.748;2022-07-21T17:03:36;5.88;;;3.45;;
18526;SDS011;9393;42.158;24.748;2022-07-21T17:06:40;5.68;;;3.60;;
18526;SDS011;9393;42.158;24.748;2022-07-21T17:09:45;9.15;;;4.20;;
18526;SDS011;9393;42.158;24.748;2022-07-21T17:12:49;4.88;;;3.92;;
18526;SDS011;9393;42.158;24.748;2022-07-21T17:15:52;5.55;;;4.63;;
18526;SDS011;9393;42.158;24.748;2022-07-21T17:18:56;8.63;;;4.00;;
18526;SDS011;9393;42.158;24.748;2022-07-21T17:22:00;6.72;;;3.80;;
18526;SDS011;9393;42.158;24.748;2022-07-21T17:25:05;5.53;;;4.20;;
18526;SDS011;9393;42.158;24.748;2022-07-21T17:28:09;14.77;;;7.53;;
18526;SDS011;9393;42.158;24.748;2022-07-21T17:31:13;10.30;;;5.57;;
18526;SDS011;9393;42.158;24.748;2022-07-21T17:34:18;9.32;;;3.63;;
18526;SDS011;9393;42.158;24.748;2022-07-21T17:37:21;6.63;;;3.63;;
18526;SDS011;9393;42.158;24.748;2022-07-21T17:40:26;8.23;;;4.00;;
18526;SDS011;9393;42.158;24.748;2022-07-21T17:43:29;7.65;;;4.55;;
18526;SDS011;9393;42.158;24.748;2022-07-21T17:46:33;7.60;;;4.95;;
18526;SDS011;9393;42.158;24.748;2022-07-21T17:49:37;9.02;;;4.70;;
18526;SDS011;9393;42.158;24.748;2022-07-21T17:52:40;7.80;;;4.40;;
18526;SDS011;9393;42.158;24.748;2022-07-21T17:55:45;12.00;;;7.03;;
18526;SDS011;9393;42.158;24.748;2022-07-21T17:58:48;7.32;;;3.38;;
18526;SDS011;9393;42.158;24.748;2022-07-21T18:01:52;5.43;;;3.65;;
18526;SDS011;9393;42.158;24.748;2022-07-21T18:04:55;6.05;;;3.40;;
18526;SDS011;9393;42.158;24.748;2022-07-21T18:07:58;8.20;;;4.03;;
18526;SDS011;9393;42.158;24.748;2022-07-21T18:11:03;6.28;;;3.60;;
18526;SDS011;9393;42.158;24.748;2022-07-21T18:14:07;6.25;;;3.75;;
18526;SDS011;9393;42.158;24.748;2022-07-21T18:17:10;6.72;;;3.65;;
18526;SDS011;9393;42.158;24.748;2022-07-21T18:20:14;8.77;;;3.72;;
18526;SDS011;9393;42.158;24.748;2022-07-21T18:23:17;11.32;;;4.07;;
18526;SDS011;9393;42.158;24.748;2022-07-21T18:26:22;8.55;;;3.90;;
18526;SDS011;9393;42.158;24.748;2022-07-21T18:29:26;9.35;;;3.97;;
18526;SDS011;9393;42.158;24.748;2022-07-21T18:32:29;9.93;;;4.07;;
18526;SDS011;9393;42.158;24.748;2022-07-21T18:35:33;6.28;;;4.00;;
18526;SDS011;9393;42.158;24.748;2022-07-21T18:38:36;10.75;;;4.20;;
18526;SDS011;9393;42.158;24.748;2022-07-21T18:41:41;9.57;;;4.03;;